sensor_id;sensor_type;location;lat;lon;timestamp;P1;durP1;ratioP1;P2;durP2;ratioP2
22916;SDS011;11624;53.250;7.456;2024-01-30T00:00:25;29.23;;;13.70;;
22916;SDS011;11624;53.250;7.456;2024-01-30T00:02:53;28.23;;;13.93;;
22916;SDS011;11624;53.250;7.456;2024-01-30T00:05:22;28.38;;;14.93;;
22916;SDS011;11624;53.250;7.456;2024-01-30T00:07:50;26.23;;;14.15;;
22916;SDS011;11624;53.250;7.456;2024-01-30T00:10:19;27.15;;;13.07;;
22916;SDS011;11624;53.250;7.456;2024-01-30T00:12:48;29.58;;;14.27;;
22916;SDS011;11624;53.250;7.456;2024-01-30T00:15:16;29.90;;;14.88;;
22916;SDS011;11624;53.250;7.456;2024-01-30T00:17:46;28.52;;;13.70;;
22916;SDS011;11624;53.250;7.456;2024-01-30T00:20:14;28.52;;;13.70;;
22916;SDS011;11624;53.250;7.456;2024-01-30T00:22:43;27.85;;;13.70;;
22916;SDS011;11624;53.250;7.456;2024-01-30T00:25:12;28.60;;;15.07;;
22916;SDS011;11624;53.250;7.456;2024-01-30T00:27:41;26.70;;;13.55;;
22916;SDS011;11624;53.250;7.456;2024-01-30T00:30:10;24.42;;;12.73;;
22916;SDS011;11624;53.250;7.456;2024-01-30T00:32:39;27.73;;;14.05;;
22916;SDS011;11624;53.250;7.456;2024-01-30T00:35:09;25.23;;;13.77;;
22916;SDS011;11624;53.250;7.456;2024-01-30T00:37:37;25.00;;;14.05;;
22916;SDS011;11624;53.250;7.456;2024-01-30T00:40:06;27.00;;;13.45;;
22916;SDS011;11624;53.250;7.456;2024-01-30T00:42:37;25.73;;;13.25;;
22916;SDS011;11624;53.250;7.456;2024-01-30T00:45:05;30.30;;;13.90;;
22916;SDS011;11624;53.250;7.456;2024-01-30T00:47:39;30.67;;;14.27;;
22916;SDS011;11624;53.250;7.456;2024-01-30T00:50:09;29.45;;;13.35;;
22916;SDS011;11624;53.250;7.456;2024-01-30T00:52:38;28.95;;;14.35;;
22916;SDS011;11624;53.250;7.456;2024-01-30T00:55:08;29.88;;;13.43;;
22916;SDS011;11624;53.250;7.456;2024-01-30T00:57:36;28.83;;;13.65;;
22916;SDS011;11624;53.250;7.456;2024-01-30T01:00:05;27.63;;;13.10;;
22916;SDS011;11624;53.250;7.456;2024-01-30T01:02:35;27.90;;;13.57;;
22916;SDS011;11624;53.250;7.456;2024-01-30T01:05:04;26.02;;;13.50;;
22916;SDS011;11624;53.250;7.456;2024-01-30T01:07:34;27.73;;;14.10;;
22916;SDS011;11624;53.250;7.456;2024-01-30T01:10:03;28.20;;;13.15;;
22916;SDS011;11624;53.250;7.456;2024-01-30T01:12:32;27.05;;;13.85;;
22916;SDS011;11624;53.250;7.456;2024-01-30T01:15:00;26.27;;;13.52;;
22916;SDS011;11624;53.250;7.456;2024-01-30T01:17:29;25.17;;;13.63;;
22916;SDS011;11624;53.250;7.456;2024-01-30T01:19:57;28.25;;;14.60;;
22916;SDS011;11624;53.250;7.456;2024-01-30T01:22:26;26.38;;;13.27;;
22916;SDS011;11624;53.250;7.456;2024-01-30T01:24:56;26.70;;;13.38;;
22916;SDS011;11624;53.250;7.456;2024-01-30T01:27:25;29.90;;;13.52;;
22916;SDS011;11624;53.250;7.456;2024-01-30T01:29:54;25.60;;;14.35;;
22916;SDS011;11624;53.250;7.456;2024-01-30T01:32:22;25.63;;;13.77;;
22916;SDS011;11624;53.250;7.456;2024-01-30T01:34:51;30.35;;;15.15;;
22916;SDS011;11624;53.250;7.456;2024-01-30T01:37:19;29.70;;;14.95;;
22916;SDS011;11624;53.250;7.456;2024-01-30T01:39:49;27.25;;;14.02;;
22916;SDS011;11624;53.250;7.456;2024-01-30T01:42:19;27.25;;;13.57;;
22916;SDS011;11624;53.250;7.456;2024-01-30T01:44:47;27.33;;;13.82;;
22916;SDS011;11624;53.250;7.456;2024-01-30T01:47:16;28.67;;;14.45;;
22916;SDS011;11624;53.250;7.456;2024-01-30T01:49:44;28.15;;;14.13;;
22916;SDS011;11624;53.250;7.456;2024-01-30T01:52:13;29.67;;;15.18;;
22916;SDS011;11624;53.250;7.456;2024-01-30T01:54:42;28.25;;;14.23;;
22916;SDS011;11624;53.250;7.456;2024-01-30T01:57:10;27.58;;;14.65;;
22916;SDS011;11624;53.250;7.456;2024-01-30T01:59:40;27.30;;;14.18;;
22916;SDS011;11624;53.250;7.456;2024-01-30T02:02:09;26.00;;;13.32;;
22916;SDS011;11624;53.250;7.456;2024-01-30T02:04:42;30.08;;;14.52;;
22916;SDS011;11624;53.250;7.456;2024-01-30T02:07:11;26.40;;;13.95;;
22916;SDS011;11624;53.250;7.456;2024-01-30T02:09:40;27.92;;;14.57;;
22916;SDS011;11624;53.250;7.456;2024-01-30T02:12:08;27.73;;;13.38;;
22916;SDS011;11624;53.250;7.456;2024-01-30T02:14:45;28.88;;;14.52;;
22916;SDS011;11624;53.250;7.456;2024-01-30T02:17:16;27.00;;;13.18;;
22916;SDS011;11624;53.250;7.456;2024-01-30T02:19:44;27.15;;;14.07;;
22916;SDS011;11624;53.250;7.456;2024-01-30T02:22:15;27.45;;;14.30;;
22916;SDS011;11624;53.250;7.456;2024-01-30T02:24:44;29.55;;;14.55;;
22916;SDS011;11624;53.250;7.456;2024-01-30T02:27:13;28.02;;;13.40;;
22916;SDS011;11624;53.250;7.456;2024-01-30T02:29:41;29.73;;;14.13;;
22916;SDS011;11624;53.250;7.456;2024-01-30T02:32:10;25.30;;;13.98;;
22916;SDS011;11624;53.250;7.456;2024-01-30T02:34:39;25.33;;;13.48;;
22916;SDS011;11624;53.250;7.456;2024-01-30T02:37:07;25.92;;;12.98;;
22916;SDS011;11624;53.250;7.456;2024-01-30T02:39:37;27.10;;;13.35;;
22916;SDS011;11624;53.250;7.456;2024-01-30T02:42:06;27.02;;;14.02;;
22916;SDS011;11624;53.250;7.456;2024-01-30T02:44:34;30.88;;;13.18;;
22916;SDS011;11624;53.250;7.456;2024-01-30T02:47:03;26.77;;;13.55;;
22916;SDS011;11624;53.250;7.456;2024-01-30T02:49:32;31.00;;;12.88;;
22916;SDS011;11624;53.250;7.456;2024-01-30T02:52:00;25.38;;;13.70;;
22916;SDS011;11624;53.250;7.456;2024-01-30T02:54:29;25.60;;;13.50;;
22916;SDS011;11624;53.250;7.456;2024-01-30T02:56:59;24.25;;;12.63;;
22916;SDS011;11624;53.250;7.456;2024-01-30T02:59:28;25.77;;;12.85;;
22916;SDS011;11624;53.250;7.456;2024-01-30T03:01:56;25.52;;;13.80;;
22916;SDS011;11624;53.250;7.456;2024-01-30T03:04:25;25.60;;;13.00;;
22916;SDS011;11624;53.250;7.456;2024-01-30T03:06:53;30.38;;;14.20;;
22916;SDS011;11624;53.250;7.456;2024-01-30T03:09:22;33.70;;;14.25;;
22916;SDS011;11624;53.250;7.456;2024-01-30T03:11:50;24.25;;;11.75;;
22916;SDS011;11624;53.250;7.456;2024-01-30T03:14:20;26.65;;;13.40;;
22916;SDS011;11624;53.250;7.456;2024-01-30T03:16:49;28.58;;;13.70;;
22916;SDS011;11624;53.250;7.456;2024-01-30T03:19:17;25.55;;;13.40;;
22916;SDS011;11624;53.250;7.456;2024-01-30T03:21:46;26.25;;;13.52;;
22916;SDS011;11624;53.250;7.456;2024-01-30T03:24:15;30.40;;;12.98;;
22916;SDS011;11624;53.250;7.456;2024-01-30T03:26:43;25.88;;;12.50;;
22916;SDS011;11624;53.250;7.456;2024-01-30T03:29:12;26.58;;;12.75;;
22916;SDS011;11624;53.250;7.456;2024-01-30T03:31:42;30.25;;;12.95;;
22916;SDS011;11624;53.250;7.456;2024-01-30T03:34:10;24.10;;;13.15;;
22916;SDS011;11624;53.250;7.456;2024-01-30T03:36:39;25.02;;;12.73;;
22916;SDS011;11624;53.250;7.456;2024-01-30T03:39:07;24.83;;;13.13;;
22916;SDS011;11624;53.250;7.456;2024-01-30T03:41:36;28.33;;;13.43;;
22916;SDS011;11624;53.250;7.456;2024-01-30T03:44:05;24.42;;;12.63;;
22916;SDS011;11624;53.250;7.456;2024-01-30T03:46:34;29.30;;;12.88;;
22916;SDS011;11624;53.250;7.456;2024-01-30T03:49:04;28.27;;;14.13;;
22916;SDS011;11624;53.250;7.456;2024-01-30T03:51:32;27.02;;;13.30;;
22916;SDS011;11624;53.250;7.456;2024-01-30T03:54:01;28.98;;;13.35;;
22916;SDS011;11624;53.250;7.456;2024-01-30T03:56:29;30.98;;;15.10;;
22916;SDS011;11624;53.250;7.456;2024-01-30T03:58:58;27.50;;;13.35;;
22916;SDS011;11624;53.250;7.456;2024-01-30T04:01:27;28.42;;;14.15;;
22916;SDS011;11624;53.250;7.456;2024-01-30T04:03:55;25.65;;;13.02;;
22916;SDS011;11624;53.250;7.456;2024-01-30T04:06:25;28.13;;;13.73;;
22916;SDS011;11624;53.250;7.456;2024-01-30T04:08:54;26.60;;;13.25;;
22916;SDS011;11624;53.250;7.456;2024-01-30T04:11:22;25.83;;;13.30;;
22916;SDS011;11624;53.250;7.456;2024-01-30T04:13:51;26.70;;;13.10;;
22916;SDS011;11624;53.250;7.456;2024-01-30T04:16:20;24.13;;;12.70;;
22916;SDS011;11624;53.250;7.456;2024-01-30T04:18:49;25.30;;;12.88;;
22916;SDS011;11624;53.250;7.456;2024-01-30T04:21:20;25.30;;;12.98;;
22916;SDS011;11624;53.250;7.456;2024-01-30T04:23:50;25.95;;;12.45;;
22916;SDS011;11624;53.250;7.456;2024-01-30T04:26:19;26.23;;;13.10;;
22916;SDS011;11624;53.250;7.456;2024-01-30T04:28:47;27.23;;;13.13;;
22916;SDS011;11624;53.250;7.456;2024-01-30T04:31:16;23.65;;;12.60;;
22916;SDS011;11624;53.250;7.456;2024-01-30T04:33:44;27.38;;;13.27;;
22916;SDS011;11624;53.250;7.456;2024-01-30T04:36:13;27.40;;;13.93;;
22916;SDS011;11624;53.250;7.456;2024-01-30T04:38:41;24.85;;;13.60;;
22916;SDS011;11624;53.250;7.456;2024-01-30T04:41:11;26.23;;;13.18;;
22916;SDS011;11624;53.250;7.456;2024-01-30T04:43:40;26.38;;;12.68;;
22916;SDS011;11624;53.250;7.456;2024-01-30T04:46:08;29.13;;;13.90;;
22916;SDS011;11624;53.250;7.456;2024-01-30T04:48:37;27.27;;;13.70;;
22916;SDS011;11624;53.250;7.456;2024-01-30T04:51:05;29.33;;;13.85;;
22916;SDS011;11624;53.250;7.456;2024-01-30T04:53:34;25.35;;;13.68;;
22916;SDS011;11624;53.250;7.456;2024-01-30T04:56:02;26.85;;;13.98;;
22916;SDS011;11624;53.250;7.456;2024-01-30T04:58:34;30.75;;;14.48;;
22916;SDS011;11624;53.250;7.456;2024-01-30T05:01:03;28.02;;;14.77;;
22916;SDS011;11624;53.250;7.456;2024-01-30T05:03:33;25.55;;;13.65;;
22916;SDS011;11624;53.250;7.456;2024-01-30T05:06:02;26.60;;;13.50;;
22916;SDS011;11624;53.250;7.456;2024-01-30T05:08:30;24.98;;;12.38;;
22916;SDS011;11624;53.250;7.456;2024-01-30T05:10:59;25.05;;;12.38;;
22916;SDS011;11624;53.250;7.456;2024-01-30T05:13:30;26.73;;;13.65;;
22916;SDS011;11624;53.250;7.456;2024-01-30T05:16:00;27.10;;;12.80;;
22916;SDS011;11624;53.250;7.456;2024-01-30T05:18:30;25.98;;;12.40;;
22916;SDS011;11624;53.250;7.456;2024-01-30T05:20:59;25.40;;;12.98;;
22916;SDS011;11624;53.250;7.456;2024-01-30T05:23:27;29.20;;;13.68;;
22916;SDS011;11624;53.250;7.456;2024-01-30T05:25:56;25.65;;;13.27;;
22916;SDS011;11624;53.250;7.456;2024-01-30T05:28:28;24.63;;;12.75;;
22916;SDS011;11624;53.250;7.456;2024-01-30T05:30:57;26.35;;;12.95;;
22916;SDS011;11624;53.250;7.456;2024-01-30T05:33:27;29.48;;;14.27;;
22916;SDS011;11624;53.250;7.456;2024-01-30T05:35:56;25.95;;;12.77;;
22916;SDS011;11624;53.250;7.456;2024-01-30T05:38:24;26.38;;;13.52;;
22916;SDS011;11624;53.250;7.456;2024-01-30T05:40:53;25.67;;;13.57;;
22916;SDS011;11624;53.250;7.456;2024-01-30T05:43:21;27.20;;;13.32;;
22916;SDS011;11624;53.250;7.456;2024-01-30T05:45:50;26.83;;;14.05;;
22916;SDS011;11624;53.250;7.456;2024-01-30T05:48:19;25.20;;;12.88;;
22916;SDS011;11624;53.250;7.456;2024-01-30T05:50:49;27.33;;;12.93;;
22916;SDS011;11624;53.250;7.456;2024-01-30T05:53:18;27.42;;;13.90;;
22916;SDS011;11624;53.250;7.456;2024-01-30T05:55:46;32.20;;;13.13;;
22916;SDS011;11624;53.250;7.456;2024-01-30T05:58:14;31.80;;;13.55;;
22916;SDS011;11624;53.250;7.456;2024-01-30T06:00:43;27.17;;;13.25;;
22916;SDS011;11624;53.250;7.456;2024-01-30T06:03:12;25.10;;;13.45;;
22916;SDS011;11624;53.250;7.456;2024-01-30T06:05:40;26.88;;;13.48;;
22916;SDS011;11624;53.250;7.456;2024-01-30T06:08:10;28.23;;;14.38;;
22916;SDS011;11624;53.250;7.456;2024-01-30T06:10:38;28.95;;;13.52;;
22916;SDS011;11624;53.250;7.456;2024-01-30T06:13:07;25.83;;;13.27;;
22916;SDS011;11624;53.250;7.456;2024-01-30T06:15:35;25.27;;;12.95;;
22916;SDS011;11624;53.250;7.456;2024-01-30T06:18:04;25.38;;;12.68;;
22916;SDS011;11624;53.250;7.456;2024-01-30T06:20:33;27.88;;;14.05;;
22916;SDS011;11624;53.250;7.456;2024-01-30T06:23:01;27.13;;;13.27;;
22916;SDS011;11624;53.250;7.456;2024-01-30T06:25:31;24.30;;;12.48;;
22916;SDS011;11624;53.250;7.456;2024-01-30T06:28:00;26.27;;;13.80;;
22916;SDS011;11624;53.250;7.456;2024-01-30T06:30:28;27.85;;;13.68;;
22916;SDS011;11624;53.250;7.456;2024-01-30T06:32:57;27.15;;;12.57;;
22916;SDS011;11624;53.250;7.456;2024-01-30T06:35:25;25.58;;;12.85;;
22916;SDS011;11624;53.250;7.456;2024-01-30T06:37:55;23.88;;;12.70;;
22916;SDS011;11624;53.250;7.456;2024-01-30T06:40:24;29.02;;;13.75;;
22916;SDS011;11624;53.250;7.456;2024-01-30T06:42:54;25.92;;;12.70;;
22916;SDS011;11624;53.250;7.456;2024-01-30T06:45:22;23.83;;;12.43;;
22916;SDS011;11624;53.250;7.456;2024-01-30T06:47:51;25.92;;;13.02;;
22916;SDS011;11624;53.250;7.456;2024-01-30T06:50:19;24.83;;;12.10;;
22916;SDS011;11624;53.250;7.456;2024-01-30T06:52:48;26.95;;;13.13;;
22916;SDS011;11624;53.250;7.456;2024-01-30T06:55:16;23.13;;;12.05;;
22916;SDS011;11624;53.250;7.456;2024-01-30T06:57:45;27.20;;;12.05;;
22916;SDS011;11624;53.250;7.456;2024-01-30T07:00:18;24.42;;;12.93;;
22916;SDS011;11624;53.250;7.456;2024-01-30T07:02:48;24.13;;;12.95;;
22916;SDS011;11624;53.250;7.456;2024-01-30T07:05:16;26.13;;;12.63;;
22916;SDS011;11624;53.250;7.456;2024-01-30T07:07:45;25.73;;;12.93;;
22916;SDS011;11624;53.250;7.456;2024-01-30T07:10:13;29.20;;;12.90;;
22916;SDS011;11624;53.250;7.456;2024-01-30T07:12:42;25.27;;;12.40;;
22916;SDS011;11624;53.250;7.456;2024-01-30T07:15:11;23.45;;;12.05;;
22916;SDS011;11624;53.250;7.456;2024-01-30T07:17:44;25.27;;;11.93;;
22916;SDS011;11624;53.250;7.456;2024-01-30T07:20:13;24.95;;;11.80;;
22916;SDS011;11624;53.250;7.456;2024-01-30T07:22:44;21.33;;;11.13;;
22916;SDS011;11624;53.250;7.456;2024-01-30T07:25:12;20.58;;;10.65;;
22916;SDS011;11624;53.250;7.456;2024-01-30T07:27:41;24.77;;;11.77;;
22916;SDS011;11624;53.250;7.456;2024-01-30T07:30:09;23.50;;;11.25;;
22916;SDS011;11624;53.250;7.456;2024-01-30T07:32:38;22.55;;;10.35;;
22916;SDS011;11624;53.250;7.456;2024-01-30T07:35:08;23.83;;;12.48;;
22916;SDS011;11624;53.250;7.456;2024-01-30T07:37:38;24.48;;;11.45;;
22916;SDS011;11624;53.250;7.456;2024-01-30T07:40:07;26.17;;;12.73;;
22916;SDS011;11624;53.250;7.456;2024-01-30T07:42:35;21.77;;;11.68;;
22916;SDS011;11624;53.250;7.456;2024-01-30T07:45:05;26.02;;;12.50;;
22916;SDS011;11624;53.250;7.456;2024-01-30T07:47:34;23.10;;;11.90;;
22916;SDS011;11624;53.250;7.456;2024-01-30T07:50:02;23.42;;;12.57;;
22916;SDS011;11624;53.250;7.456;2024-01-30T07:52:32;23.10;;;11.38;;
22916;SDS011;11624;53.250;7.456;2024-01-30T07:55:01;25.35;;;11.13;;
22916;SDS011;11624;53.250;7.456;2024-01-30T07:57:32;21.17;;;10.57;;
22916;SDS011;11624;53.250;7.456;2024-01-30T08:00:00;23.38;;;11.02;;
22916;SDS011;11624;53.250;7.456;2024-01-30T08:02:32;21.02;;;10.15;;
22916;SDS011;11624;53.250;7.456;2024-01-30T08:05:00;24.13;;;10.93;;
22916;SDS011;11624;53.250;7.456;2024-01-30T08:07:29;23.92;;;10.95;;
22916;SDS011;11624;53.250;7.456;2024-01-30T08:09:59;22.17;;;10.93;;
22916;SDS011;11624;53.250;7.456;2024-01-30T08:12:28;22.50;;;11.13;;
22916;SDS011;11624;53.250;7.456;2024-01-30T08:14:56;23.40;;;10.05;;
22916;SDS011;11624;53.250;7.456;2024-01-30T08:17:25;21.05;;;10.68;;
22916;SDS011;11624;53.250;7.456;2024-01-30T08:19:53;26.25;;;11.05;;
22916;SDS011;11624;53.250;7.456;2024-01-30T08:22:22;23.45;;;11.27;;
22916;SDS011;11624;53.250;7.456;2024-01-30T08:24:50;21.60;;;10.60;;
22916;SDS011;11624;53.250;7.456;2024-01-30T08:27:22;22.65;;;11.18;;
22916;SDS011;11624;53.250;7.456;2024-01-30T08:29:51;19.95;;;9.93;;
22916;SDS011;11624;53.250;7.456;2024-01-30T08:32:19;22.15;;;10.75;;
22916;SDS011;11624;53.250;7.456;2024-01-30T08:34:48;24.83;;;10.65;;
22916;SDS011;11624;53.250;7.456;2024-01-30T08:37:16;23.02;;;9.98;;
22916;SDS011;11624;53.250;7.456;2024-01-30T08:39:45;23.15;;;11.43;;
22916;SDS011;11624;53.250;7.456;2024-01-30T08:42:14;19.50;;;10.15;;
22916;SDS011;11624;53.250;7.456;2024-01-30T08:44:46;22.05;;;10.77;;
22916;SDS011;11624;53.250;7.456;2024-01-30T08:47:15;22.85;;;10.57;;
22916;SDS011;11624;53.250;7.456;2024-01-30T08:49:45;23.67;;;9.98;;
22916;SDS011;11624;53.250;7.456;2024-01-30T08:52:13;20.77;;;9.85;;
22916;SDS011;11624;53.250;7.456;2024-01-30T08:54:42;21.33;;;10.15;;
22916;SDS011;11624;53.250;7.456;2024-01-30T08:57:10;26.27;;;11.05;;
22916;SDS011;11624;53.250;7.456;2024-01-30T08:59:39;22.17;;;10.93;;
22916;SDS011;11624;53.250;7.456;2024-01-30T09:02:09;22.50;;;10.98;;
22916;SDS011;11624;53.250;7.456;2024-01-30T09:04:39;21.95;;;10.05;;
22916;SDS011;11624;53.250;7.456;2024-01-30T09:07:08;22.25;;;10.75;;
22916;SDS011;11624;53.250;7.456;2024-01-30T09:09:37;21.50;;;10.25;;
22916;SDS011;11624;53.250;7.456;2024-01-30T09:12:07;21.73;;;10.35;;
22916;SDS011;11624;53.250;7.456;2024-01-30T09:14:39;20.30;;;9.73;;
22916;SDS011;11624;53.250;7.456;2024-01-30T09:17:09;22.20;;;10.07;;
22916;SDS011;11624;53.250;7.456;2024-01-30T09:19:38;21.55;;;10.10;;
22916;SDS011;11624;53.250;7.456;2024-01-30T09:22:08;21.33;;;11.05;;
22916;SDS011;11624;53.250;7.456;2024-01-30T09:24:37;21.08;;;9.85;;
22916;SDS011;11624;53.250;7.456;2024-01-30T09:27:05;21.73;;;9.98;;
22916;SDS011;11624;53.250;7.456;2024-01-30T09:29:34;21.10;;;9.52;;
22916;SDS011;11624;53.250;7.456;2024-01-30T09:32:04;20.13;;;9.18;;
22916;SDS011;11624;53.250;7.456;2024-01-30T09:34:34;21.52;;;9.90;;
22916;SDS011;11624;53.250;7.456;2024-01-30T09:37:03;19.92;;;9.38;;
22916;SDS011;11624;53.250;7.456;2024-01-30T09:39:32;20.80;;;10.00;;
22916;SDS011;11624;53.250;7.456;2024-01-30T09:42:01;19.35;;;9.02;;
22916;SDS011;11624;53.250;7.456;2024-01-30T09:44:33;20.38;;;10.25;;
22916;SDS011;11624;53.250;7.456;2024-01-30T09:47:04;22.55;;;9.82;;
22916;SDS011;11624;53.250;7.456;2024-01-30T09:49:32;19.75;;;9.05;;
22916;SDS011;11624;53.250;7.456;2024-01-30T09:52:05;19.30;;;8.63;;
22916;SDS011;11624;53.250;7.456;2024-01-30T09:54:34;21.98;;;9.38;;
22916;SDS011;11624;53.250;7.456;2024-01-30T09:57:03;19.65;;;9.07;;
22916;SDS011;11624;53.250;7.456;2024-01-30T09:59:33;19.70;;;9.38;;
22916;SDS011;11624;53.250;7.456;2024-01-30T10:02:02;22.73;;;9.38;;
22916;SDS011;11624;53.250;7.456;2024-01-30T10:04:31;20.75;;;8.82;;
22916;SDS011;11624;53.250;7.456;2024-01-30T10:07:02;17.35;;;8.20;;
22916;SDS011;11624;53.250;7.456;2024-01-30T10:09:34;23.38;;;9.27;;
22916;SDS011;11624;53.250;7.456;2024-01-30T10:12:03;20.48;;;9.45;;
22916;SDS011;11624;53.250;7.456;2024-01-30T10:14:32;21.25;;;8.98;;
22916;SDS011;11624;53.250;7.456;2024-01-30T10:17:01;21.10;;;9.25;;
22916;SDS011;11624;53.250;7.456;2024-01-30T10:19:42;19.48;;;8.55;;
22916;SDS011;11624;53.250;7.456;2024-01-30T10:22:13;19.65;;;9.23;;
22916;SDS011;11624;53.250;7.456;2024-01-30T10:24:42;18.55;;;9.50;;
22916;SDS011;11624;53.250;7.456;2024-01-30T10:27:12;20.90;;;8.90;;
22916;SDS011;11624;53.250;7.456;2024-01-30T10:29:40;18.95;;;8.50;;
22916;SDS011;11624;53.250;7.456;2024-01-30T10:32:09;19.13;;;8.52;;
22916;SDS011;11624;53.250;7.456;2024-01-30T10:34:37;18.02;;;8.85;;
22916;SDS011;11624;53.250;7.456;2024-01-30T10:37:07;23.33;;;8.63;;
22916;SDS011;11624;53.250;7.456;2024-01-30T10:39:41;19.92;;;8.85;;
22916;SDS011;11624;53.250;7.456;2024-01-30T10:42:11;17.92;;;8.40;;
22916;SDS011;11624;53.250;7.456;2024-01-30T10:44:44;18.52;;;8.75;;
22916;SDS011;11624;53.250;7.456;2024-01-30T10:47:24;20.10;;;8.55;;
22916;SDS011;11624;53.250;7.456;2024-01-30T10:49:55;22.98;;;8.55;;
22916;SDS011;11624;53.250;7.456;2024-01-30T10:52:24;20.65;;;8.45;;
22916;SDS011;11624;53.250;7.456;2024-01-30T10:54:56;20.88;;;8.50;;
22916;SDS011;11624;53.250;7.456;2024-01-30T10:57:25;19.60;;;8.60;;
22916;SDS011;11624;53.250;7.456;2024-01-30T10:59:55;17.67;;;7.90;;
22916;SDS011;11624;53.250;7.456;2024-01-30T11:02:25;20.63;;;8.55;;
22916;SDS011;11624;53.250;7.456;2024-01-30T11:04:55;23.50;;;9.07;;
22916;SDS011;11624;53.250;7.456;2024-01-30T11:07:26;18.58;;;8.80;;
22916;SDS011;11624;53.250;7.456;2024-01-30T11:10:01;18.77;;;8.20;;
22916;SDS011;11624;53.250;7.456;2024-01-30T11:12:31;21.73;;;8.27;;
22916;SDS011;11624;53.250;7.456;2024-01-30T11:15:04;20.42;;;8.38;;
22916;SDS011;11624;53.250;7.456;2024-01-30T11:17:44;18.65;;;9.52;;
22916;SDS011;11624;53.250;7.456;2024-01-30T11:20:14;19.98;;;8.95;;
22916;SDS011;11624;53.250;7.456;2024-01-30T11:22:44;18.15;;;8.30;;
22916;SDS011;11624;53.250;7.456;2024-01-30T11:25:15;17.65;;;8.13;;
22916;SDS011;11624;53.250;7.456;2024-01-30T11:27:45;17.90;;;8.48;;
22916;SDS011;11624;53.250;7.456;2024-01-30T11:30:21;17.60;;;8.07;;
22916;SDS011;11624;53.250;7.456;2024-01-30T11:33:00;19.35;;;7.80;;
22916;SDS011;11624;53.250;7.456;2024-01-30T11:35:32;20.20;;;8.45;;
22916;SDS011;11624;53.250;7.456;2024-01-30T11:38:01;18.88;;;8.02;;
22916;SDS011;11624;53.250;7.456;2024-01-30T11:40:33;20.38;;;8.07;;
22916;SDS011;11624;53.250;7.456;2024-01-30T11:43:02;18.08;;;8.23;;
22916;SDS011;11624;53.250;7.456;2024-01-30T11:45:33;23.70;;;8.65;;
22916;SDS011;11624;53.250;7.456;2024-01-30T11:48:03;21.02;;;9.25;;
22916;SDS011;11624;53.250;7.456;2024-01-30T11:50:32;20.05;;;8.20;;
22916;SDS011;11624;53.250;7.456;2024-01-30T11:53:02;17.95;;;8.45;;
22916;SDS011;11624;53.250;7.456;2024-01-30T11:55:30;18.77;;;8.35;;
22916;SDS011;11624;53.250;7.456;2024-01-30T11:58:02;19.42;;;8.45;;
22916;SDS011;11624;53.250;7.456;2024-01-30T12:00:32;20.15;;;8.43;;
22916;SDS011;11624;53.250;7.456;2024-01-30T12:03:02;19.20;;;8.52;;
22916;SDS011;11624;53.250;7.456;2024-01-30T12:05:33;19.42;;;9.00;;
22916;SDS011;11624;53.250;7.456;2024-01-30T12:08:02;23.35;;;8.98;;
22916;SDS011;11624;53.250;7.456;2024-01-30T12:10:33;22.05;;;9.32;;
22916;SDS011;11624;53.250;7.456;2024-01-30T12:13:01;21.55;;;9.02;;
22916;SDS011;11624;53.250;7.456;2024-01-30T12:15:30;21.42;;;8.15;;
22916;SDS011;11624;53.250;7.456;2024-01-30T12:18:05;20.25;;;8.82;;
22916;SDS011;11624;53.250;7.456;2024-01-30T12:20:34;22.90;;;8.68;;
22916;SDS011;11624;53.250;7.456;2024-01-30T12:23:03;19.98;;;8.63;;
22916;SDS011;11624;53.250;7.456;2024-01-30T12:25:33;20.42;;;8.63;;
22916;SDS011;11624;53.250;7.456;2024-01-30T12:28:02;20.83;;;8.73;;
22916;SDS011;11624;53.250;7.456;2024-01-30T12:30:31;19.95;;;8.80;;
22916;SDS011;11624;53.250;7.456;2024-01-30T12:32:59;23.85;;;9.55;;
22916;SDS011;11624;53.250;7.456;2024-01-30T12:35:31;23.50;;;8.70;;
22916;SDS011;11624;53.250;7.456;2024-01-30T12:38:00;19.77;;;8.60;;
22916;SDS011;11624;53.250;7.456;2024-01-30T12:40:28;21.63;;;9.32;;
22916;SDS011;11624;53.250;7.456;2024-01-30T12:42:58;26.98;;;9.35;;
22916;SDS011;11624;53.250;7.456;2024-01-30T12:45:27;19.80;;;9.23;;
22916;SDS011;11624;53.250;7.456;2024-01-30T12:47:56;22.48;;;8.75;;
22916;SDS011;11624;53.250;7.456;2024-01-30T12:50:25;21.70;;;9.35;;
22916;SDS011;11624;53.250;7.456;2024-01-30T12:52:53;24.05;;;9.02;;
22916;SDS011;11624;53.250;7.456;2024-01-30T12:55:23;20.98;;;9.07;;
22916;SDS011;11624;53.250;7.456;2024-01-30T12:57:55;20.35;;;9.43;;
22916;SDS011;11624;53.250;7.456;2024-01-30T13:00:25;23.92;;;9.48;;
22916;SDS011;11624;53.250;7.456;2024-01-30T13:02:53;22.42;;;8.95;;
22916;SDS011;11624;53.250;7.456;2024-01-30T13:05:22;21.75;;;8.77;;
22916;SDS011;11624;53.250;7.456;2024-01-30T13:07:51;24.92;;;9.48;;
22916;SDS011;11624;53.250;7.456;2024-01-30T13:10:20;19.30;;;8.63;;
22916;SDS011;11624;53.250;7.456;2024-01-30T13:12:48;20.00;;;8.93;;
22916;SDS011;11624;53.250;7.456;2024-01-30T13:15:17;23.98;;;9.02;;
22916;SDS011;11624;53.250;7.456;2024-01-30T13:17:47;21.48;;;9.23;;
22916;SDS011;11624;53.250;7.456;2024-01-30T13:20:15;22.17;;;9.05;;
22916;SDS011;11624;53.250;7.456;2024-01-30T13:22:47;21.73;;;8.75;;
22916;SDS011;11624;53.250;7.456;2024-01-30T13:25:16;17.63;;;8.00;;
22916;SDS011;11624;53.250;7.456;2024-01-30T13:27:45;17.90;;;8.35;;
22916;SDS011;11624;53.250;7.456;2024-01-30T13:30:14;25.98;;;8.20;;
22916;SDS011;11624;53.250;7.456;2024-01-30T13:32:42;18.33;;;6.55;;
22916;SDS011;11624;53.250;7.456;2024-01-30T13:35:14;22.17;;;7.18;;
22916;SDS011;11624;53.250;7.456;2024-01-30T13:37:43;19.40;;;7.00;;
22916;SDS011;11624;53.250;7.456;2024-01-30T13:40:14;21.77;;;7.25;;
22916;SDS011;11624;53.250;7.456;2024-01-30T13:42:43;24.00;;;7.78;;
22916;SDS011;11624;53.250;7.456;2024-01-30T13:45:12;18.40;;;7.07;;
22916;SDS011;11624;53.250;7.456;2024-01-30T13:47:41;18.95;;;6.85;;
22916;SDS011;11624;53.250;7.456;2024-01-30T13:50:09;18.42;;;6.55;;
22916;SDS011;11624;53.250;7.456;2024-01-30T13:52:43;19.98;;;6.25;;
22916;SDS011;11624;53.250;7.456;2024-01-30T13:55:12;18.40;;;6.00;;
22916;SDS011;11624;53.250;7.456;2024-01-30T13:57:41;16.48;;;6.25;;
22916;SDS011;11624;53.250;7.456;2024-01-30T14:00:10;17.00;;;5.40;;
22916;SDS011;11624;53.250;7.456;2024-01-30T14:02:43;17.15;;;5.47;;
22916;SDS011;11624;53.250;7.456;2024-01-30T14:05:11;15.32;;;4.60;;
22916;SDS011;11624;53.250;7.456;2024-01-30T14:07:40;17.65;;;4.53;;
22916;SDS011;11624;53.250;7.456;2024-01-30T14:10:11;10.43;;;4.00;;
22916;SDS011;11624;53.250;7.456;2024-01-30T14:12:41;7.80;;;2.83;;
22916;SDS011;11624;53.250;7.456;2024-01-30T14:15:11;9.25;;;2.58;;
22916;SDS011;11624;53.250;7.456;2024-01-30T14:17:54;7.20;;;2.50;;
22916;SDS011;11624;53.250;7.456;2024-01-30T14:20:24;5.45;;;1.95;;
22916;SDS011;11624;53.250;7.456;2024-01-30T14:22:54;5.50;;;2.20;;
22916;SDS011;11624;53.250;7.456;2024-01-30T14:25:23;7.75;;;2.20;;
22916;SDS011;11624;53.250;7.456;2024-01-30T14:27:52;6.88;;;2.00;;
22916;SDS011;11624;53.250;7.456;2024-01-30T14:30:21;7.85;;;2.40;;
22916;SDS011;11624;53.250;7.456;2024-01-30T14:32:49;5.70;;;2.20;;
22916;SDS011;11624;53.250;7.456;2024-01-30T14:35:18;8.25;;;2.33;;
22916;SDS011;11624;53.250;7.456;2024-01-30T14:37:48;3.78;;;1.83;;